SBSR Informações do Aeroporto

Informações da Pista
Pista 7 Comprimento 5381 ft Largura 115 ft
Elevação 0 ft Limite 0 ft Heading 0
Pista 25 Comprimento 5381 ft Largura 115 ft
Elevação 0 ft Limite 0 ft Heading 0
Frequências do Aeroporto
Tipo AFIS Nome RDO Frequência 130.85 MHZ
Navaids do Aeroporto
Tipo NDB Nome Rio Preto Frequência 420 KHZ
Informações meteorológicas do aeroporto e NOTAM
ADDS - METARS form results

(2043 UTC 16 September 2021)
Data provider http://aviationweather.gov/metar/data/
 
METAR text: SBSR 162000Z 22007KT 9999 FEW040 SCT070 30/14 Q1017
Conditions at: SBSR (SAO JOSE PRETO , BR) observed 2000 UTC 16 September 2021
Temperature: 30.0°C (86°F)
Dewpoint: 14.0°C (57°F) [RH = 38%]
Pressure (altimeter): 30.03 inches Hg (1017.0 mb)
Winds: from the SW (220 degrees) at 8 MPH (7 knots; 3.6 m/s)
Visibility: 6 or more miles (10+ km)
Ceiling: at least 12,000 feet AGL
Clouds: few clouds at 4000 feet AGL
scattered clouds at 7000 feet AGL
Weather: no significant weather observed at this time